sensor_id;sensor_type;location;lat;lon;timestamp;P1;durP1;ratioP1;P2;durP2;ratioP2
13421;SDS011;6782;55.904;13.396;2022-07-18T00:00:29;4.55;;;2.95;;
13421;SDS011;6782;55.904;13.396;2022-07-18T00:02:55;4.72;;;3.28;;
13421;SDS011;6782;55.904;13.396;2022-07-18T00:05:23;6.95;;;3.45;;
13421;SDS011;6782;55.904;13.396;2022-07-18T00:07:51;4.43;;;3.10;;
13421;SDS011;6782;55.904;13.396;2022-07-18T00:10:19;4.63;;;3.42;;
13421;SDS011;6782;55.904;13.396;2022-07-18T00:12:45;6.10;;;3.30;;
13421;SDS011;6782;55.904;13.396;2022-07-18T00:15:13;8.02;;;3.40;;
13421;SDS011;6782;55.904;13.396;2022-07-18T00:17:39;3.95;;;3.05;;
13421;SDS011;6782;55.904;13.396;2022-07-18T00:20:08;5.68;;;3.78;;
13421;SDS011;6782;55.904;13.396;2022-07-18T00:22:37;6.35;;;3.22;;
13421;SDS011;6782;55.904;13.396;2022-07-18T00:25:06;7.22;;;3.55;;
13421;SDS011;6782;55.904;13.396;2022-07-18T00:27:33;6.10;;;3.13;;
13421;SDS011;6782;55.904;13.396;2022-07-18T00:29:59;5.28;;;3.20;;
13421;SDS011;6782;55.904;13.396;2022-07-18T00:32:26;5.40;;;3.30;;
13421;SDS011;6782;55.904;13.396;2022-07-18T00:34:53;5.75;;;3.30;;
13421;SDS011;6782;55.904;13.396;2022-07-18T00:37:20;5.72;;;3.00;;
13421;SDS011;6782;55.904;13.396;2022-07-18T00:39:47;6.22;;;3.47;;
13421;SDS011;6782;55.904;13.396;2022-07-18T00:42:15;7.05;;;3.25;;
13421;SDS011;6782;55.904;13.396;2022-07-18T00:44:43;7.07;;;3.38;;
13421;SDS011;6782;55.904;13.396;2022-07-18T00:47:10;7.93;;;3.25;;
13421;SDS011;6782;55.904;13.396;2022-07-18T00:49:37;4.85;;;3.50;;
13421;SDS011;6782;55.904;13.396;2022-07-18T00:52:04;7.93;;;3.05;;
13421;SDS011;6782;55.904;13.396;2022-07-18T00:54:32;5.05;;;2.97;;
13421;SDS011;6782;55.904;13.396;2022-07-18T00:56:59;6.43;;;3.47;;
13421;SDS011;6782;55.904;13.396;2022-07-18T00:59:28;7.65;;;3.60;;
13421;SDS011;6782;55.904;13.396;2022-07-18T01:02:10;5.43;;;3.22;;
13421;SDS011;6782;55.904;13.396;2022-07-18T01:04:37;6.43;;;3.05;;
13421;SDS011;6782;55.904;13.396;2022-07-18T01:07:04;6.80;;;3.40;;
13421;SDS011;6782;55.904;13.396;2022-07-18T01:09:31;6.72;;;3.50;;
13421;SDS011;6782;55.904;13.396;2022-07-18T01:11:59;8.13;;;3.35;;
13421;SDS011;6782;55.904;13.396;2022-07-18T01:14:28;5.47;;;3.05;;
13421;SDS011;6782;55.904;13.396;2022-07-18T01:16:56;6.68;;;3.15;;
13421;SDS011;6782;55.904;13.396;2022-07-18T01:19:23;6.28;;;3.00;;
13421;SDS011;6782;55.904;13.396;2022-07-18T01:21:51;7.35;;;3.47;;
13421;SDS011;6782;55.904;13.396;2022-07-18T01:24:18;5.70;;;3.55;;
13421;SDS011;6782;55.904;13.396;2022-07-18T01:26:46;4.85;;;3.47;;
13421;SDS011;6782;55.904;13.396;2022-07-18T01:29:13;7.90;;;3.13;;
13421;SDS011;6782;55.904;13.396;2022-07-18T01:31:40;7.28;;;3.78;;
13421;SDS011;6782;55.904;13.396;2022-07-18T01:34:07;9.80;;;3.47;;
13421;SDS011;6782;55.904;13.396;2022-07-18T01:36:34;6.95;;;3.25;;
13421;SDS011;6782;55.904;13.396;2022-07-18T01:39:03;5.30;;;3.22;;
13421;SDS011;6782;55.904;13.396;2022-07-18T01:41:30;5.63;;;3.22;;
13421;SDS011;6782;55.904;13.396;2022-07-18T01:43:56;3.75;;;3.15;;
13421;SDS011;6782;55.904;13.396;2022-07-18T01:46:23;5.70;;;3.63;;
13421;SDS011;6782;55.904;13.396;2022-07-18T01:48:50;8.30;;;3.63;;
13421;SDS011;6782;55.904;13.396;2022-07-18T01:51:17;6.15;;;3.70;;
13421;SDS011;6782;55.904;13.396;2022-07-18T01:53:52;5.70;;;3.25;;
13421;SDS011;6782;55.904;13.396;2022-07-18T01:56:22;6.50;;;3.50;;
13421;SDS011;6782;55.904;13.396;2022-07-18T01:58:49;7.35;;;3.85;;
13421;SDS011;6782;55.904;13.396;2022-07-18T02:01:16;6.50;;;3.63;;
13421;SDS011;6782;55.904;13.396;2022-07-18T02:03:43;4.50;;;3.58;;
13421;SDS011;6782;55.904;13.396;2022-07-18T02:06:10;9.07;;;3.58;;
13421;SDS011;6782;55.904;13.396;2022-07-18T02:08:37;8.48;;;3.90;;
13421;SDS011;6782;55.904;13.396;2022-07-18T02:11:03;6.63;;;3.88;;
13421;SDS011;6782;55.904;13.396;2022-07-18T02:13:32;4.70;;;3.80;;
13421;SDS011;6782;55.904;13.396;2022-07-18T02:15:59;4.45;;;3.22;;
13421;SDS011;6782;55.904;13.396;2022-07-18T02:18:26;8.15;;;3.75;;
13421;SDS011;6782;55.904;13.396;2022-07-18T02:20:57;7.55;;;3.92;;
13421;SDS011;6782;55.904;13.396;2022-07-18T02:23:24;4.75;;;3.40;;
13421;SDS011;6782;55.904;13.396;2022-07-18T02:25:52;7.45;;;3.78;;
13421;SDS011;6782;55.904;13.396;2022-07-18T02:28:19;6.70;;;3.70;;
13421;SDS011;6782;55.904;13.396;2022-07-18T02:30:47;4.75;;;3.97;;
13421;SDS011;6782;55.904;13.396;2022-07-18T02:33:14;7.43;;;4.18;;
13421;SDS011;6782;55.904;13.396;2022-07-18T02:35:42;7.40;;;4.13;;
13421;SDS011;6782;55.904;13.396;2022-07-18T02:38:09;8.30;;;4.13;;
13421;SDS011;6782;55.904;13.396;2022-07-18T02:40:36;8.43;;;4.00;;
13421;SDS011;6782;55.904;13.396;2022-07-18T02:43:03;5.90;;;4.03;;
13421;SDS011;6782;55.904;13.396;2022-07-18T02:45:30;6.93;;;3.33;;
13421;SDS011;6782;55.904;13.396;2022-07-18T02:47:59;6.82;;;4.28;;
13421;SDS011;6782;55.904;13.396;2022-07-18T02:50:26;7.30;;;4.40;;
13421;SDS011;6782;55.904;13.396;2022-07-18T02:52:53;4.78;;;3.65;;
13421;SDS011;6782;55.904;13.396;2022-07-18T02:55:22;4.43;;;4.03;;
13421;SDS011;6782;55.904;13.396;2022-07-18T02:57:50;5.78;;;4.07;;
13421;SDS011;6782;55.904;13.396;2022-07-18T03:00:17;5.97;;;3.75;;
13421;SDS011;6782;55.904;13.396;2022-07-18T03:02:44;6.18;;;4.22;;
13421;SDS011;6782;55.904;13.396;2022-07-18T03:05:13;7.80;;;3.85;;
13421;SDS011;6782;55.904;13.396;2022-07-18T03:07:40;6.47;;;4.07;;
13421;SDS011;6782;55.904;13.396;2022-07-18T03:10:07;8.40;;;4.65;;
13421;SDS011;6782;55.904;13.396;2022-07-18T03:12:35;7.82;;;3.85;;
13421;SDS011;6782;55.904;13.396;2022-07-18T03:15:02;8.70;;;4.50;;
13421;SDS011;6782;55.904;13.396;2022-07-18T03:17:30;6.82;;;4.40;;
13421;SDS011;6782;55.904;13.396;2022-07-18T03:19:57;7.30;;;4.13;;
13421;SDS011;6782;55.904;13.396;2022-07-18T03:22:25;8.20;;;4.32;;
13421;SDS011;6782;55.904;13.396;2022-07-18T03:24:55;7.30;;;4.53;;
13421;SDS011;6782;55.904;13.396;2022-07-18T03:27:23;6.28;;;3.70;;
13421;SDS011;6782;55.904;13.396;2022-07-18T03:29:50;6.18;;;4.55;;
13421;SDS011;6782;55.904;13.396;2022-07-18T03:32:16;7.72;;;4.43;;
13421;SDS011;6782;55.904;13.396;2022-07-18T03:34:43;5.40;;;4.30;;
13421;SDS011;6782;55.904;13.396;2022-07-18T03:37:10;9.05;;;4.97;;
13421;SDS011;6782;55.904;13.396;2022-07-18T03:39:39;9.13;;;5.03;;
13421;SDS011;6782;55.904;13.396;2022-07-18T03:42:06;10.13;;;5.35;;
13421;SDS011;6782;55.904;13.396;2022-07-18T03:44:33;6.35;;;4.22;;
13421;SDS011;6782;55.904;13.396;2022-07-18T03:47:00;8.48;;;4.78;;
13421;SDS011;6782;55.904;13.396;2022-07-18T03:49:27;7.07;;;4.90;;
13421;SDS011;6782;55.904;13.396;2022-07-18T03:51:55;7.53;;;4.22;;
13421;SDS011;6782;55.904;13.396;2022-07-18T03:54:22;8.00;;;4.28;;
13421;SDS011;6782;55.904;13.396;2022-07-18T03:56:51;7.97;;;4.40;;
13421;SDS011;6782;55.904;13.396;2022-07-18T03:59:18;11.05;;;4.93;;
13421;SDS011;6782;55.904;13.396;2022-07-18T04:01:45;8.52;;;4.53;;
13421;SDS011;6782;55.904;13.396;2022-07-18T04:04:12;5.80;;;4.22;;
13421;SDS011;6782;55.904;13.396;2022-07-18T04:06:39;8.88;;;5.00;;
13421;SDS011;6782;55.904;13.396;2022-07-18T04:09:06;7.40;;;4.40;;
13421;SDS011;6782;55.904;13.396;2022-07-18T04:11:33;6.85;;;5.15;;
13421;SDS011;6782;55.904;13.396;2022-07-18T04:14:02;8.07;;;5.13;;
13421;SDS011;6782;55.904;13.396;2022-07-18T04:16:29;7.35;;;5.03;;
13421;SDS011;6782;55.904;13.396;2022-07-18T04:18:56;8.15;;;5.05;;
13421;SDS011;6782;55.904;13.396;2022-07-18T04:21:23;6.25;;;4.90;;
13421;SDS011;6782;55.904;13.396;2022-07-18T04:23:50;8.27;;;4.93;;
13421;SDS011;6782;55.904;13.396;2022-07-18T04:26:18;7.55;;;4.88;;
13421;SDS011;6782;55.904;13.396;2022-07-18T04:28:45;6.30;;;4.57;;
13421;SDS011;6782;55.904;13.396;2022-07-18T04:31:14;8.20;;;4.63;;
13421;SDS011;6782;55.904;13.396;2022-07-18T04:33:41;12.07;;;5.05;;
13421;SDS011;6782;55.904;13.396;2022-07-18T04:36:07;7.60;;;4.63;;
13421;SDS011;6782;55.904;13.396;2022-07-18T04:38:34;9.77;;;5.10;;
13421;SDS011;6782;55.904;13.396;2022-07-18T04:41:03;7.40;;;5.05;;
13421;SDS011;6782;55.904;13.396;2022-07-18T04:43:30;6.88;;;4.95;;
13421;SDS011;6782;55.904;13.396;2022-07-18T04:45:57;8.75;;;4.63;;
13421;SDS011;6782;55.904;13.396;2022-07-18T04:48:26;9.60;;;5.28;;
13421;SDS011;6782;55.904;13.396;2022-07-18T04:50:53;7.90;;;4.28;;
13421;SDS011;6782;55.904;13.396;2022-07-18T04:53:20;7.35;;;4.53;;
13421;SDS011;6782;55.904;13.396;2022-07-18T04:55:47;7.70;;;4.80;;
13421;SDS011;6782;55.904;13.396;2022-07-18T04:58:14;9.35;;;5.05;;
13421;SDS011;6782;55.904;13.396;2022-07-18T05:00:41;9.15;;;4.88;;
13421;SDS011;6782;55.904;13.396;2022-07-18T05:03:08;9.27;;;4.95;;
13421;SDS011;6782;55.904;13.396;2022-07-18T05:05:37;5.72;;;4.45;;
13421;SDS011;6782;55.904;13.396;2022-07-18T05:08:05;6.75;;;4.78;;
13421;SDS011;6782;55.904;13.396;2022-07-18T05:10:33;7.07;;;4.85;;
13421;SDS011;6782;55.904;13.396;2022-07-18T05:13:00;6.82;;;4.50;;
13421;SDS011;6782;55.904;13.396;2022-07-18T05:15:28;8.52;;;4.10;;
13421;SDS011;6782;55.904;13.396;2022-07-18T05:17:55;8.65;;;4.47;;
13421;SDS011;6782;55.904;13.396;2022-07-18T05:20:23;7.88;;;4.15;;
13421;SDS011;6782;55.904;13.396;2022-07-18T05:22:53;8.30;;;4.53;;
13421;SDS011;6782;55.904;13.396;2022-07-18T05:25:20;7.32;;;4.30;;
13421;SDS011;6782;55.904;13.396;2022-07-18T05:27:49;5.13;;;4.50;;
13421;SDS011;6782;55.904;13.396;2022-07-18T05:30:16;9.63;;;5.18;;
13421;SDS011;6782;55.904;13.396;2022-07-18T05:32:43;7.55;;;4.82;;
13421;SDS011;6782;55.904;13.396;2022-07-18T05:35:11;8.75;;;4.70;;
13421;SDS011;6782;55.904;13.396;2022-07-18T05:37:39;7.95;;;5.57;;
13421;SDS011;6782;55.904;13.396;2022-07-18T05:40:09;7.13;;;5.07;;
13421;SDS011;6782;55.904;13.396;2022-07-18T05:42:39;8.00;;;4.80;;
13421;SDS011;6782;55.904;13.396;2022-07-18T05:45:07;11.13;;;5.93;;
13421;SDS011;6782;55.904;13.396;2022-07-18T05:47:36;7.78;;;5.00;;
13421;SDS011;6782;55.904;13.396;2022-07-18T05:50:03;10.32;;;5.13;;
13421;SDS011;6782;55.904;13.396;2022-07-18T05:52:30;7.15;;;5.30;;
13421;SDS011;6782;55.904;13.396;2022-07-18T05:54:59;8.55;;;4.70;;
13421;SDS011;6782;55.904;13.396;2022-07-18T05:57:28;7.18;;;5.22;;
13421;SDS011;6782;55.904;13.396;2022-07-18T05:59:55;8.38;;;4.65;;
13421;SDS011;6782;55.904;13.396;2022-07-18T06:02:22;7.55;;;4.95;;
13421;SDS011;6782;55.904;13.396;2022-07-18T06:04:50;7.00;;;4.97;;
13421;SDS011;6782;55.904;13.396;2022-07-18T06:07:17;8.82;;;4.25;;
13421;SDS011;6782;55.904;13.396;2022-07-18T06:09:44;5.82;;;4.10;;
13421;SDS011;6782;55.904;13.396;2022-07-18T06:12:11;6.60;;;4.70;;
13421;SDS011;6782;55.904;13.396;2022-07-18T06:14:39;6.07;;;4.60;;
13421;SDS011;6782;55.904;13.396;2022-07-18T06:17:05;5.40;;;4.38;;
13421;SDS011;6782;55.904;13.396;2022-07-18T06:19:33;7.75;;;4.55;;
13421;SDS011;6782;55.904;13.396;2022-07-18T06:21:59;8.68;;;4.60;;
13421;SDS011;6782;55.904;13.396;2022-07-18T06:24:26;6.22;;;5.20;;
13421;SDS011;6782;55.904;13.396;2022-07-18T06:26:53;5.70;;;4.28;;
13421;SDS011;6782;55.904;13.396;2022-07-18T06:29:20;6.85;;;4.70;;
13421;SDS011;6782;55.904;13.396;2022-07-18T06:31:48;7.70;;;4.70;;
13421;SDS011;6782;55.904;13.396;2022-07-18T06:34:15;7.65;;;4.28;;
13421;SDS011;6782;55.904;13.396;2022-07-18T06:36:42;9.88;;;4.97;;
13421;SDS011;6782;55.904;13.396;2022-07-18T06:39:08;5.25;;;4.18;;
13421;SDS011;6782;55.904;13.396;2022-07-18T06:41:37;6.03;;;4.35;;
13421;SDS011;6782;55.904;13.396;2022-07-18T06:44:04;5.93;;;4.25;;
13421;SDS011;6782;55.904;13.396;2022-07-18T06:46:31;8.18;;;4.75;;
13421;SDS011;6782;55.904;13.396;2022-07-18T06:49:00;8.18;;;4.72;;
13421;SDS011;6782;55.904;13.396;2022-07-18T06:54:02;5.72;;;4.10;;
13421;SDS011;6782;55.904;13.396;2022-07-18T06:56:49;5.45;;;3.97;;
13421;SDS011;6782;55.904;13.396;2022-07-18T06:59:36;8.43;;;4.63;;
13421;SDS011;6782;55.904;13.396;2022-07-18T07:02:23;7.85;;;4.60;;
13421;SDS011;6782;55.904;13.396;2022-07-18T07:05:12;9.20;;;3.97;;
13421;SDS011;6782;55.904;13.396;2022-07-18T07:08:00;8.75;;;3.75;;
13421;SDS011;6782;55.904;13.396;2022-07-18T07:10:47;7.45;;;3.60;;
13421;SDS011;6782;55.904;13.396;2022-07-18T07:13:34;9.55;;;4.15;;
13421;SDS011;6782;55.904;13.396;2022-07-18T07:16:21;6.40;;;3.75;;
13421;SDS011;6782;55.904;13.396;2022-07-18T07:19:08;7.00;;;3.80;;
13421;SDS011;6782;55.904;13.396;2022-07-18T07:21:56;4.63;;;3.40;;
13421;SDS011;6782;55.904;13.396;2022-07-18T07:24:43;5.60;;;3.42;;
13421;SDS011;6782;55.904;13.396;2022-07-18T07:27:30;6.60;;;3.35;;
13421;SDS011;6782;55.904;13.396;2022-07-18T07:30:17;5.70;;;3.17;;
13421;SDS011;6782;55.904;13.396;2022-07-18T07:33:06;5.25;;;3.75;;
13421;SDS011;6782;55.904;13.396;2022-07-18T07:35:53;8.68;;;3.75;;
13421;SDS011;6782;55.904;13.396;2022-07-18T07:38:42;5.30;;;4.38;;
13421;SDS011;6782;55.904;13.396;2022-07-18T07:41:29;4.63;;;4.10;;
13421;SDS011;6782;55.904;13.396;2022-07-18T07:44:15;6.15;;;4.28;;
13421;SDS011;6782;55.904;13.396;2022-07-18T07:47:02;5.05;;;4.63;;
13421;SDS011;6782;55.904;13.396;2022-07-18T07:49:50;5.10;;;4.22;;
13421;SDS011;6782;55.904;13.396;2022-07-18T07:52:38;8.48;;;5.03;;
13421;SDS011;6782;55.904;13.396;2022-07-18T07:55:26;9.27;;;5.25;;
13421;SDS011;6782;55.904;13.396;2022-07-18T07:58:14;10.55;;;6.20;;
13421;SDS011;6782;55.904;13.396;2022-07-18T08:01:02;5.05;;;4.55;;
13421;SDS011;6782;55.904;13.396;2022-07-18T08:03:49;6.82;;;5.65;;
13421;SDS011;6782;55.904;13.396;2022-07-18T08:06:37;6.22;;;4.85;;
13421;SDS011;6782;55.904;13.396;2022-07-18T08:09:24;5.63;;;5.10;;
13421;SDS011;6782;55.904;13.396;2022-07-18T08:12:13;6.70;;;5.10;;
13421;SDS011;6782;55.904;13.396;2022-07-18T08:15:00;5.75;;;4.25;;
13421;SDS011;6782;55.904;13.396;2022-07-18T08:17:47;5.43;;;4.28;;
13421;SDS011;6782;55.904;13.396;2022-07-18T08:20:35;6.32;;;4.45;;
13421;SDS011;6782;55.904;13.396;2022-07-18T08:23:22;4.28;;;3.80;;
13421;SDS011;6782;55.904;13.396;2022-07-18T08:26:09;8.48;;;4.30;;
13421;SDS011;6782;55.904;13.396;2022-07-18T08:28:57;4.15;;;3.72;;
13421;SDS011;6782;55.904;13.396;2022-07-18T08:31:44;5.00;;;4.25;;
13421;SDS011;6782;55.904;13.396;2022-07-18T08:34:31;6.00;;;3.50;;
13421;SDS011;6782;55.904;13.396;2022-07-18T08:37:18;6.43;;;3.50;;
13421;SDS011;6782;55.904;13.396;2022-07-18T08:40:06;6.13;;;3.88;;
13421;SDS011;6782;55.904;13.396;2022-07-18T08:42:57;4.80;;;3.33;;
13421;SDS011;6782;55.904;13.396;2022-07-18T08:45:49;5.75;;;3.95;;
13421;SDS011;6782;55.904;13.396;2022-07-18T08:48:39;4.30;;;3.45;;
13421;SDS011;6782;55.904;13.396;2022-07-18T08:51:26;5.22;;;3.67;;
13421;SDS011;6782;55.904;13.396;2022-07-18T08:54:14;4.60;;;3.80;;
13421;SDS011;6782;55.904;13.396;2022-07-18T08:57:03;6.07;;;4.10;;
13421;SDS011;6782;55.904;13.396;2022-07-18T08:59:50;4.50;;;3.97;;
13421;SDS011;6782;55.904;13.396;2022-07-18T09:02:39;5.40;;;4.28;;
13421;SDS011;6782;55.904;13.396;2022-07-18T09:05:27;7.00;;;4.78;;
13421;SDS011;6782;55.904;13.396;2022-07-18T09:08:15;5.28;;;4.50;;
13421;SDS011;6782;55.904;13.396;2022-07-18T09:11:08;7.00;;;4.10;;
13421;SDS011;6782;55.904;13.396;2022-07-18T09:13:56;8.73;;;4.60;;
13421;SDS011;6782;55.904;13.396;2022-07-18T09:16:43;4.90;;;4.32;;
13421;SDS011;6782;55.904;13.396;2022-07-18T09:19:57;8.85;;;5.50;;
13421;SDS011;6782;55.904;13.396;2022-07-18T09:22:46;8.00;;;4.75;;
13421;SDS011;6782;55.904;13.396;2022-07-18T09:25:34;7.63;;;5.05;;
13421;SDS011;6782;55.904;13.396;2022-07-18T09:28:22;7.05;;;5.25;;
13421;SDS011;6782;55.904;13.396;2022-07-18T09:31:16;8.07;;;5.40;;
13421;SDS011;6782;55.904;13.396;2022-07-18T09:34:03;5.70;;;4.80;;
13421;SDS011;6782;55.904;13.396;2022-07-18T09:36:55;7.45;;;5.05;;
13421;SDS011;6782;55.904;13.396;2022-07-18T09:39:43;7.68;;;5.63;;
13421;SDS011;6782;55.904;13.396;2022-07-18T09:42:31;5.78;;;5.03;;
13421;SDS011;6782;55.904;13.396;2022-07-18T09:45:21;7.15;;;5.68;;
13421;SDS011;6782;55.904;13.396;2022-07-18T09:48:13;7.03;;;5.22;;
13421;SDS011;6782;55.904;13.396;2022-07-18T09:51:02;10.07;;;6.43;;
13421;SDS011;6782;55.904;13.396;2022-07-18T09:53:52;9.35;;;5.57;;
13421;SDS011;6782;55.904;13.396;2022-07-18T09:56:40;9.25;;;6.00;;
13421;SDS011;6782;55.904;13.396;2022-07-18T09:59:28;8.27;;;6.15;;
13421;SDS011;6782;55.904;13.396;2022-07-18T10:02:16;7.35;;;5.85;;
13421;SDS011;6782;55.904;13.396;2022-07-18T10:05:04;7.72;;;5.55;;
13421;SDS011;6782;55.904;13.396;2022-07-18T10:07:52;7.57;;;5.72;;
13421;SDS011;6782;55.904;13.396;2022-07-18T10:10:41;8.50;;;5.65;;
13421;SDS011;6782;55.904;13.396;2022-07-18T10:13:30;7.82;;;6.13;;
13421;SDS011;6782;55.904;13.396;2022-07-18T10:16:19;7.38;;;5.68;;
13421;SDS011;6782;55.904;13.396;2022-07-18T10:19:06;7.40;;;6.10;;
13421;SDS011;6782;55.904;13.396;2022-07-18T10:21:53;7.53;;;6.63;;
13421;SDS011;6782;55.904;13.396;2022-07-18T10:24:41;6.53;;;5.18;;
13421;SDS011;6782;55.904;13.396;2022-07-18T10:27:39;7.97;;;6.00;;
13421;SDS011;6782;55.904;13.396;2022-07-18T10:30:35;7.28;;;6.57;;
13421;SDS011;6782;55.904;13.396;2022-07-18T10:33:40;8.13;;;6.00;;
13421;SDS011;6782;55.904;13.396;2022-07-18T10:36:32;7.05;;;5.32;;
13421;SDS011;6782;55.904;13.396;2022-07-18T10:39:24;9.40;;;5.63;;
13421;SDS011;6782;55.904;13.396;2022-07-18T10:42:20;8.20;;;5.00;;
13421;SDS011;6782;55.904;13.396;2022-07-18T10:45:22;8.55;;;5.63;;
13421;SDS011;6782;55.904;13.396;2022-07-18T10:51:40;8.32;;;5.32;;
13421;SDS011;6782;55.904;13.396;2022-07-18T10:54:27;5.55;;;4.72;;
13421;SDS011;6782;55.904;13.396;2022-07-18T10:57:14;6.38;;;4.88;;
13421;SDS011;6782;55.904;13.396;2022-07-18T11:00:02;8.55;;;5.20;;
13421;SDS011;6782;55.904;13.396;2022-07-18T11:03:04;7.55;;;4.65;;
13421;SDS011;6782;55.904;13.396;2022-07-18T11:05:53;6.22;;;5.63;;
13421;SDS011;6782;55.904;13.396;2022-07-18T11:08:41;8.57;;;5.57;;
13421;SDS011;6782;55.904;13.396;2022-07-18T11:11:28;6.57;;;5.35;;
13421;SDS011;6782;55.904;13.396;2022-07-18T11:20:50;10.25;;;6.25;;
13421;SDS011;6782;55.904;13.396;2022-07-18T11:23:41;8.60;;;6.22;;
13421;SDS011;6782;55.904;13.396;2022-07-18T11:26:31;8.98;;;6.63;;
13421;SDS011;6782;55.904;13.396;2022-07-18T11:29:20;8.40;;;7.03;;
13421;SDS011;6782;55.904;13.396;2022-07-18T11:32:07;10.95;;;7.35;;
13421;SDS011;6782;55.904;13.396;2022-07-18T11:34:56;9.55;;;7.63;;
13421;SDS011;6782;55.904;13.396;2022-07-18T11:37:46;10.70;;;7.70;;
13421;SDS011;6782;55.904;13.396;2022-07-18T11:40:33;9.20;;;8.27;;
13421;SDS011;6782;55.904;13.396;2022-07-18T11:43:32;8.95;;;8.05;;
13421;SDS011;6782;55.904;13.396;2022-07-18T11:46:20;9.38;;;8.18;;
13421;SDS011;6782;55.904;13.396;2022-07-18T11:49:08;13.15;;;8.50;;
13421;SDS011;6782;55.904;13.396;2022-07-18T11:51:57;9.00;;;7.93;;
13421;SDS011;6782;55.904;13.396;2022-07-18T11:54:44;9.30;;;7.72;;
13421;SDS011;6782;55.904;13.396;2022-07-18T11:57:31;11.20;;;8.73;;
13421;SDS011;6782;55.904;13.396;2022-07-18T12:00:20;9.45;;;8.15;;
13421;SDS011;6782;55.904;13.396;2022-07-18T12:03:08;9.50;;;8.05;;
13421;SDS011;6782;55.904;13.396;2022-07-18T12:05:56;9.73;;;7.55;;
13421;SDS011;6782;55.904;13.396;2022-07-18T12:08:46;8.95;;;7.50;;
13421;SDS011;6782;55.904;13.396;2022-07-18T12:11:37;10.32;;;8.45;;
13421;SDS011;6782;55.904;13.396;2022-07-18T12:14:25;12.93;;;8.38;;
13421;SDS011;6782;55.904;13.396;2022-07-18T12:17:12;9.30;;;7.78;;
13421;SDS011;6782;55.904;13.396;2022-07-18T12:20:09;10.68;;;7.70;;
13421;SDS011;6782;55.904;13.396;2022-07-18T12:23:05;8.93;;;7.18;;
13421;SDS011;6782;55.904;13.396;2022-07-18T12:25:57;10.57;;;8.55;;
13421;SDS011;6782;55.904;13.396;2022-07-18T12:28:46;8.50;;;6.88;;
13421;SDS011;6782;55.904;13.396;2022-07-18T12:31:41;8.75;;;6.20;;
13421;SDS011;6782;55.904;13.396;2022-07-18T12:34:29;6.55;;;5.40;;
13421;SDS011;6782;55.904;13.396;2022-07-18T12:37:22;8.25;;;5.80;;
13421;SDS011;6782;55.904;13.396;2022-07-18T12:40:10;6.13;;;5.47;;
13421;SDS011;6782;55.904;13.396;2022-07-18T12:43:05;5.32;;;4.78;;
13421;SDS011;6782;55.904;13.396;2022-07-18T12:45:54;8.07;;;5.90;;
13421;SDS011;6782;55.904;13.396;2022-07-18T12:48:42;9.40;;;5.45;;
13421;SDS011;6782;55.904;13.396;2022-07-18T12:51:29;6.75;;;5.45;;
13421;SDS011;6782;55.904;13.396;2022-07-18T12:54:16;8.45;;;5.47;;
13421;SDS011;6782;55.904;13.396;2022-07-18T12:57:05;6.30;;;4.97;;
13421;SDS011;6782;55.904;13.396;2022-07-18T12:59:54;7.32;;;5.43;;
13421;SDS011;6782;55.904;13.396;2022-07-18T13:02:42;6.28;;;5.20;;
13421;SDS011;6782;55.904;13.396;2022-07-18T13:05:30;7.18;;;4.60;;
13421;SDS011;6782;55.904;13.396;2022-07-18T13:08:17;6.93;;;5.13;;
13421;SDS011;6782;55.904;13.396;2022-07-18T13:11:05;7.05;;;5.22;;
13421;SDS011;6782;55.904;13.396;2022-07-18T13:13:52;5.15;;;4.45;;
13421;SDS011;6782;55.904;13.396;2022-07-18T13:16:40;7.45;;;4.55;;
13421;SDS011;6782;55.904;13.396;2022-07-18T13:19:28;6.65;;;5.25;;
13421;SDS011;6782;55.904;13.396;2022-07-18T13:22:16;6.40;;;4.05;;
13421;SDS011;6782;55.904;13.396;2022-07-18T13:25:03;5.53;;;4.38;;
13421;SDS011;6782;55.904;13.396;2022-07-18T13:27:51;6.32;;;4.47;;
13421;SDS011;6782;55.904;13.396;2022-07-18T13:30:38;5.88;;;4.22;;
13421;SDS011;6782;55.904;13.396;2022-07-18T13:33:29;5.90;;;3.75;;
13421;SDS011;6782;55.904;13.396;2022-07-18T13:36:16;4.93;;;3.88;;
13421;SDS011;6782;55.904;13.396;2022-07-18T13:39:03;5.28;;;4.13;;
13421;SDS011;6782;55.904;13.396;2022-07-18T13:41:51;5.55;;;3.60;;
13421;SDS011;6782;55.904;13.396;2022-07-18T13:44:38;4.53;;;3.80;;
13421;SDS011;6782;55.904;13.396;2022-07-18T13:47:26;5.85;;;3.65;;
13421;SDS011;6782;55.904;13.396;2022-07-18T13:50:14;5.15;;;3.50;;
13421;SDS011;6782;55.904;13.396;2022-07-18T13:53:01;4.35;;;3.40;;
13421;SDS011;6782;55.904;13.396;2022-07-18T13:55:48;3.60;;;3.30;;
13421;SDS011;6782;55.904;13.396;2022-07-18T13:58:35;3.70;;;3.40;;
13421;SDS011;6782;55.904;13.396;2022-07-18T14:01:23;3.05;;;2.75;;
13421;SDS011;6782;55.904;13.396;2022-07-18T14:04:10;4.35;;;3.60;;
13421;SDS011;6782;55.904;13.396;2022-07-18T14:06:59;3.40;;;3.10;;
13421;SDS011;6782;55.904;13.396;2022-07-18T14:09:47;3.55;;;3.25;;
13421;SDS011;6782;55.904;13.396;2022-07-18T14:12:34;5.35;;;3.53;;
13421;SDS011;6782;55.904;13.396;2022-07-18T14:15:21;4.50;;;3.13;;
13421;SDS011;6782;55.904;13.396;2022-07-18T14:18:09;4.78;;;3.17;;
13421;SDS011;6782;55.904;13.396;2022-07-18T14:20:56;4.25;;;3.22;;
13421;SDS011;6782;55.904;13.396;2022-07-18T14:23:45;7.25;;;3.50;;
13421;SDS011;6782;55.904;13.396;2022-07-18T14:26:32;3.40;;;3.10;;
13421;SDS011;6782;55.904;13.396;2022-07-18T14:29:19;4.60;;;3.03;;
13421;SDS011;6782;55.904;13.396;2022-07-18T14:32:06;3.22;;;2.92;;
13421;SDS011;6782;55.904;13.396;2022-07-18T14:34:53;4.70;;;2.85;;
13421;SDS011;6782;55.904;13.396;2022-07-18T14:37:40;3.45;;;2.78;;
13421;SDS011;6782;55.904;13.396;2022-07-18T14:40:29;4.07;;;3.17;;
13421;SDS011;6782;55.904;13.396;2022-07-18T14:43:16;5.10;;;2.90;;
13421;SDS011;6782;55.904;13.396;2022-07-18T14:46:03;4.28;;;2.50;;
13421;SDS011;6782;55.904;13.396;2022-07-18T14:48:51;4.22;;;2.90;;
13421;SDS011;6782;55.904;13.396;2022-07-18T14:51:38;3.72;;;2.80;;
13421;SDS011;6782;55.904;13.396;2022-07-18T14:54:25;4.03;;;2.70;;
13421;SDS011;6782;55.904;13.396;2022-07-18T14:57:15;3.95;;;2.40;;
13421;SDS011;6782;55.904;13.396;2022-07-18T15:00:05;2.75;;;2.55;;
13421;SDS011;6782;55.904;13.396;2022-07-18T15:02:55;2.92;;;2.50;;
13421;SDS011;6782;55.904;13.396;2022-07-18T15:05:42;4.28;;;2.50;;
13421;SDS011;6782;55.904;13.396;2022-07-18T15:08:29;4.72;;;2.97;;
13421;SDS011;6782;55.904;13.396;2022-07-18T15:11:16;4.60;;;3.00;;
13421;SDS011;6782;55.904;13.396;2022-07-18T15:14:05;4.55;;;2.90;;
13421;SDS011;6782;55.904;13.396;2022-07-18T15:16:53;3.28;;;2.97;;
13421;SDS011;6782;55.904;13.396;2022-07-18T15:19:40;4.60;;;2.95;;
13421;SDS011;6782;55.904;13.396;2022-07-18T15:22:27;3.15;;;2.83;;
13421;SDS011;6782;55.904;13.396;2022-07-18T15:25:15;3.10;;;2.80;;
13421;SDS011;6782;55.904;13.396;2022-07-18T15:28:03;5.07;;;3.50;;
13421;SDS011;6782;55.904;13.396;2022-07-18T15:30:51;3.30;;;2.80;;
13421;SDS011;6782;55.904;13.396;2022-07-18T15:33:38;5.22;;;3.25;;
13421;SDS011;6782;55.904;13.396;2022-07-18T15:36:26;4.35;;;3.15;;
13421;SDS011;6782;55.904;13.396;2022-07-18T15:39:13;5.25;;;2.95;;
13421;SDS011;6782;55.904;13.396;2022-07-18T15:42:00;4.63;;;3.40;;
13421;SDS011;6782;55.904;13.396;2022-07-18T15:44:48;6.65;;;3.70;;
13421;SDS011;6782;55.904;13.396;2022-07-18T15:47:36;4.70;;;3.45;;
13421;SDS011;6782;55.904;13.396;2022-07-18T15:50:24;4.65;;;3.50;;
13421;SDS011;6782;55.904;13.396;2022-07-18T15:53:11;3.88;;;3.45;;
13421;SDS011;6782;55.904;13.396;2022-07-18T15:55:59;3.90;;;3.50;;
13421;SDS011;6782;55.904;13.396;2022-07-18T15:58:45;4.20;;;3.55;;
13421;SDS011;6782;55.904;13.396;2022-07-18T16:01:33;4.93;;;4.25;;
13421;SDS011;6782;55.904;13.396;2022-07-18T16:04:22;5.20;;;3.92;;
13421;SDS011;6782;55.904;13.396;2022-07-18T16:07:09;4.65;;;4.18;;
13421;SDS011;6782;55.904;13.396;2022-07-18T16:09:56;5.00;;;4.50;;